createdAt,value
2023-04-26T00:02:18.656Z,8.63
2023-04-26T00:05:21.931Z,8.56
2023-04-26T00:08:25.560Z,8.55
2023-04-26T00:11:28.519Z,8.59
2023-04-26T00:14:31.305Z,8.38
2023-04-26T00:17:34.337Z,8.45
2023-04-26T00:20:37.221Z,8.44
2023-04-26T00:23:40.020Z,8.38
2023-04-26T00:26:42.671Z,8.39
2023-04-26T00:29:46.230Z,8.37
2023-04-26T00:32:49.054Z,8.38
2023-04-26T00:35:52.249Z,8.38
2023-04-26T00:38:55.184Z,8.40
2023-04-26T00:41:58.640Z,8.39
2023-04-26T00:45:01.485Z,8.38
2023-04-26T00:48:05.769Z,8.37
2023-04-26T00:51:08.652Z,8.40
2023-04-26T00:54:13.170Z,8.41
2023-04-26T00:57:16.032Z,8.43
2023-04-26T01:00:19.251Z,8.37
2023-04-26T01:03:22.519Z,8.47
2023-04-26T01:06:25.625Z,8.41
2023-04-26T01:09:31.813Z,8.39
2023-04-26T01:12:36.650Z,8.39
2023-04-26T01:15:46.683Z,8.37
2023-04-26T01:18:53.604Z,8.39
2023-04-26T01:21:56.835Z,8.39
2023-04-26T01:25:01.765Z,8.40
2023-04-26T01:28:04.652Z,8.44
2023-04-26T01:31:07.747Z,8.48
2023-04-26T01:34:10.784Z,8.47
2023-04-26T01:37:13.672Z,8.48
2023-04-26T01:40:16.612Z,8.45
2023-04-26T01:43:21.271Z,8.46
2023-04-26T01:46:23.994Z,8.43
2023-04-26T01:49:26.932Z,8.39
2023-04-26T01:52:30.874Z,8.38
2023-04-26T01:55:36.509Z,8.40
2023-04-26T01:58:39.317Z,8.35
2023-04-26T02:01:43.770Z,8.31
2023-04-26T02:04:46.637Z,8.26
2023-04-26T02:07:49.452Z,8.31
2023-04-26T02:10:52.217Z,8.31
2023-04-26T02:13:55.199Z,8.29
2023-04-26T02:16:57.910Z,8.24
2023-04-26T02:20:00.909Z,8.20
2023-04-26T02:23:03.793Z,8.13
2023-04-26T02:26:07.047Z,8.15
2023-04-26T02:29:10.062Z,8.17
2023-04-26T02:32:14.550Z,8.19
2023-04-26T02:35:17.545Z,8.19
2023-04-26T02:38:20.816Z,8.14
2023-04-26T02:41:23.669Z,8.12
2023-04-26T02:44:29.662Z,8.08
2023-04-26T02:47:32.846Z,8.11
2023-04-26T02:50:38.387Z,8.08
2023-04-26T02:53:41.948Z,8.08
2023-04-26T02:56:44.707Z,8.03
2023-04-26T02:59:47.863Z,8.02
2023-04-26T03:02:51.020Z,7.99
2023-04-26T03:05:54.171Z,8.00
2023-04-26T03:08:57.093Z,8.02
2023-04-26T03:12:00.166Z,7.99
2023-04-26T03:15:04.174Z,7.96
2023-04-26T03:18:07.573Z,7.95
2023-04-26T03:21:10.471Z,7.93
2023-04-26T03:24:13.343Z,7.83
2023-04-26T03:27:16.102Z,7.74
2023-04-26T03:30:19.248Z,7.81
2023-04-26T03:33:22.101Z,7.79
2023-04-26T03:36:25.109Z,7.74
2023-04-26T03:39:27.991Z,7.75
2023-04-26T03:42:30.828Z,7.68
2023-04-26T03:45:33.793Z,7.68
2023-04-26T03:48:36.777Z,7.65
2023-04-26T03:51:39.671Z,7.67
2023-04-26T03:54:42.856Z,7.71
2023-04-26T03:57:45.728Z,7.68
2023-04-26T04:00:48.464Z,7.71
2023-04-26T04:03:51.467Z,7.67
2023-04-26T04:06:54.320Z,7.66
2023-04-26T04:09:57.212Z,7.72
2023-04-26T04:13:00.184Z,7.73
2023-04-26T04:16:04.822Z,7.64
2023-04-26T04:19:07.827Z,7.75
2023-04-26T04:22:11.581Z,7.66
2023-04-26T04:25:15.328Z,7.69
2023-04-26T04:28:18.046Z,7.64
2023-04-26T04:31:23.032Z,7.63
2023-04-26T04:34:26.370Z,7.61
2023-04-26T04:37:30.060Z,7.69
2023-04-26T04:40:32.933Z,7.59
2023-04-26T04:43:36.009Z,7.53
2023-04-26T04:46:38.877Z,7.53
2023-04-26T04:49:41.894Z,7.52
2023-04-26T04:52:44.704Z,7.70
2023-04-26T04:55:49.342Z,7.66
2023-04-26T04:58:54.007Z,7.76
2023-04-26T05:01:58.498Z,7.80
2023-04-26T05:05:02.147Z,7.94
2023-04-26T05:08:07.686Z,7.95
2023-04-26T05:11:21.020Z,7.94
2023-04-26T05:14:24.172Z,8.03
2023-04-26T05:17:27.161Z,8.01
2023-04-26T05:20:34.585Z,8.19
2023-04-26T05:23:37.530Z,8.19
2023-04-26T05:26:40.726Z,8.31
2023-04-26T05:29:52.187Z,8.29
2023-04-26T05:33:28.210Z,8.38
2023-04-26T05:36:32.961Z,8.41
2023-04-26T05:39:35.766Z,8.44
2023-04-26T05:42:38.707Z,8.67
2023-04-26T05:46:09.426Z,8.71
2023-04-26T05:49:12.412Z,8.74
2023-04-26T05:52:15.995Z,8.92
2023-04-26T05:55:20.191Z,9.09
2023-04-26T05:58:23.077Z,9.03
2023-04-26T06:01:26.439Z,9.13
2023-04-26T06:04:29.395Z,9.26
2023-04-26T06:07:46.610Z,9.33
2023-04-26T06:10:50.457Z,9.39
2023-04-26T06:13:53.570Z,9.63
2023-04-26T06:16:58.539Z,9.70
2023-04-26T06:20:05.211Z,9.71
2023-04-26T06:23:08.245Z,9.91
2023-04-26T06:26:10.990Z,9.86
2023-04-26T06:29:14.208Z,9.92
2023-04-26T06:32:17.006Z,9.84
2023-04-26T06:35:19.760Z,9.88
2023-04-26T06:38:22.537Z,9.96
2023-04-26T06:41:25.695Z,10.21
2023-04-26T06:44:28.751Z,10.29
2023-04-26T06:47:38.103Z,10.30
2023-04-26T06:50:40.990Z,10.28
2023-04-26T06:53:43.806Z,10.39
2023-04-26T06:56:46.855Z,10.38
2023-04-26T06:59:49.629Z,10.35
2023-04-26T07:02:53.813Z,10.59
2023-04-26T07:05:56.937Z,10.67
2023-04-26T07:09:01.430Z,10.76
2023-04-26T07:12:04.788Z,10.99
2023-04-26T07:15:08.451Z,10.72
2023-04-26T07:18:11.464Z,10.97
2023-04-26T07:21:15.257Z,10.95
2023-04-26T07:24:18.205Z,11.04
2023-04-26T07:27:21.453Z,11.15
2023-04-26T07:30:24.352Z,11.27
2023-04-26T07:33:27.505Z,11.14
2023-04-26T07:36:31.699Z,11.25
2023-04-26T07:39:34.580Z,11.26
2023-04-26T07:42:37.306Z,11.56
2023-04-26T07:45:40.121Z,11.43
2023-04-26T07:48:43.043Z,11.47
2023-04-26T07:51:45.978Z,11.83
2023-04-26T07:54:48.831Z,11.91
2023-04-26T07:57:51.611Z,11.59
2023-04-26T08:00:55.301Z,11.76
2023-04-26T08:03:58.725Z,11.57
2023-04-26T08:07:06.037Z,11.82
2023-04-26T08:10:21.054Z,11.80
2023-04-26T08:13:24.798Z,12.00
2023-04-26T08:16:28.477Z,11.81
2023-04-26T08:19:33.585Z,11.76
2023-04-26T08:22:36.776Z,12.13
2023-04-26T08:25:39.522Z,11.90
2023-04-26T08:28:42.918Z,12.35
2023-04-26T08:31:45.729Z,12.29
2023-04-26T08:34:48.888Z,12.06
2023-04-26T08:37:51.815Z,12.12
2023-04-26T08:40:56.452Z,12.01
2023-04-26T08:44:01.768Z,12.53
2023-04-26T08:47:14.084Z,12.64
2023-04-26T08:50:23.411Z,12.66
2023-04-26T08:53:28.015Z,12.53
2023-04-26T08:56:31.493Z,12.90
2023-04-26T08:59:38.294Z,12.53
2023-04-26T09:02:43.057Z,12.66
2023-04-26T09:05:46.140Z,12.87
2023-04-26T09:08:53.668Z,12.55
2023-04-26T09:11:58.267Z,12.56
2023-04-26T09:15:01.696Z,12.60
2023-04-26T09:18:21.489Z,12.48
2023-04-26T09:21:24.950Z,12.84
2023-04-26T09:24:27.715Z,12.73
2023-04-26T09:27:38.334Z,13.09
2023-04-26T09:30:41.343Z,12.87
2023-04-26T09:33:59.209Z,13.11
2023-04-26T09:37:02.014Z,12.95
2023-04-26T09:40:18.377Z,12.76
2023-04-26T09:43:22.606Z,12.73
2023-04-26T09:46:25.883Z,12.96
2023-04-26T09:49:50.791Z,13.11
2023-04-26T09:52:53.598Z,12.87
2023-04-26T09:55:58.278Z,12.76
2023-04-26T09:59:02.693Z,12.92
2023-04-26T10:02:10.548Z,13.01
2023-04-26T10:05:13.642Z,13.04
2023-04-26T10:08:16.810Z,12.84
2023-04-26T10:11:21.794Z,13.38
2023-04-26T10:14:25.181Z,12.99
2023-04-26T10:17:28.157Z,12.96
2023-04-26T10:20:31.611Z,13.54
2023-04-26T10:23:35.814Z,13.26
2023-04-26T10:26:57.780Z,13.27
2023-04-26T10:30:00.629Z,13.23
2023-04-26T10:33:06.339Z,13.36
2023-04-26T10:36:13.541Z,13.36
2023-04-26T10:39:25.124Z,13.93
2023-04-26T10:42:30.448Z,13.32
2023-04-26T10:45:33.357Z,13.27
2023-04-26T10:48:36.886Z,13.73
2023-04-26T10:51:39.713Z,13.32
2023-04-26T10:55:10.453Z,13.83
2023-04-26T10:58:31.279Z,13.45
2023-04-26T11:01:34.116Z,13.11
2023-04-26T11:04:55.277Z,13.52
2023-04-26T11:08:20.718Z,13.58
2023-04-26T11:11:27.290Z,13.42
2023-04-26T11:14:30.775Z,13.57
2023-04-26T11:17:38.308Z,13.54
2023-04-26T11:20:41.229Z,13.33
2023-04-26T11:23:53.562Z,13.78
2023-04-26T11:26:56.437Z,13.75
2023-04-26T11:30:03.568Z,13.71
2023-04-26T11:33:07.020Z,14.04
2023-04-26T11:36:10.026Z,13.83
2023-04-26T11:39:14.314Z,13.61
2023-04-26T11:42:17.272Z,14.29
2023-04-26T11:45:20.053Z,14.16
2023-04-26T11:48:23.042Z,13.78
2023-04-26T11:51:26.967Z,13.87
2023-04-26T11:54:34.082Z,13.94
2023-04-26T11:57:36.842Z,14.41
2023-04-26T12:01:01.959Z,14.06
2023-04-26T12:04:10.869Z,14.60
2023-04-26T12:07:18.923Z,13.95
2023-04-26T12:10:25.035Z,13.92
2023-04-26T12:13:29.616Z,13.53
2023-04-26T12:16:32.602Z,13.36
2023-04-26T12:19:39.694Z,13.57
2023-04-26T12:22:42.657Z,13.46
2023-04-26T12:25:56.350Z,13.15
2023-04-26T12:28:59.173Z,14.03
2023-04-26T12:32:02.878Z,13.72
2023-04-26T12:35:07.416Z,13.44
2023-04-26T12:38:10.560Z,13.58
2023-04-26T12:41:14.097Z,13.25
2023-04-26T12:44:19.604Z,13.35
2023-04-26T12:47:24.177Z,13.75
2023-04-26T12:50:27.822Z,13.57
2023-04-26T12:53:30.630Z,13.61
2023-04-26T12:56:34.189Z,14.05
2023-04-26T12:59:37.054Z,13.91
2023-04-26T13:02:40.450Z,14.69
2023-04-26T13:05:43.465Z,13.99
2023-04-26T13:08:46.239Z,14.35
2023-04-26T13:11:49.095Z,14.23
2023-04-26T13:14:52.010Z,14.36
2023-04-26T13:17:54.949Z,14.05
2023-04-26T13:20:57.900Z,13.94
2023-04-26T13:24:00.925Z,14.44
2023-04-26T13:27:04.099Z,14.37
2023-04-26T13:30:07.688Z,14.48
2023-04-26T13:33:11.240Z,14.69
2023-04-26T13:36:15.917Z,14.29
2023-04-26T13:39:19.203Z,14.24
2023-04-26T13:42:22.065Z,14.51
2023-04-26T13:45:24.822Z,15.03
2023-04-26T13:48:28.279Z,14.66
2023-04-26T13:51:33.293Z,14.90
2023-04-26T13:54:37.006Z,14.82
2023-04-26T13:57:39.968Z,15.50
2023-04-26T14:00:42.820Z,14.65
2023-04-26T14:03:45.883Z,15.14
2023-04-26T14:06:48.744Z,15.34
2023-04-26T14:09:52.192Z,15.03
2023-04-26T14:12:56.564Z,15.06
2023-04-26T14:16:00.533Z,14.19
2023-04-26T14:19:03.336Z,13.75
2023-04-26T14:22:06.225Z,13.55
2023-04-26T14:25:09.605Z,14.01
2023-04-26T14:28:12.816Z,13.34
2023-04-26T14:31:18.140Z,13.30
2023-04-26T14:34:22.421Z,13.25
2023-04-26T14:37:25.343Z,13.61
2023-04-26T14:40:28.739Z,13.05
2023-04-26T14:43:31.538Z,13.08
2023-04-26T14:46:34.371Z,12.92
2023-04-26T14:49:37.436Z,12.79
2023-04-26T14:52:40.796Z,13.90
2023-04-26T14:55:43.609Z,14.33
2023-04-26T14:58:46.844Z,14.56
2023-04-26T15:01:50.393Z,14.60
2023-04-26T15:04:53.313Z,14.92
2023-04-26T15:07:57.048Z,14.04
2023-04-26T15:10:59.939Z,13.45
2023-04-26T15:14:02.719Z,13.12
2023-04-26T15:17:05.663Z,13.18
2023-04-26T15:20:09.693Z,14.13
2023-04-26T15:23:12.835Z,13.84
2023-04-26T15:26:15.552Z,14.69
2023-04-26T15:29:18.358Z,14.59
2023-04-26T15:32:21.447Z,14.26
2023-04-26T15:35:25.242Z,14.03
2023-04-26T15:38:28.154Z,14.10
2023-04-26T15:41:31.097Z,13.03
2023-04-26T15:44:33.904Z,12.81
2023-04-26T15:47:37.267Z,12.64
2023-04-26T15:50:40.632Z,12.87
2023-04-26T15:53:44.184Z,13.14
2023-04-26T15:56:47.235Z,12.85
2023-04-26T15:59:49.985Z,12.91
2023-04-26T16:02:53.140Z,12.88
2023-04-26T16:05:56.043Z,12.97
2023-04-26T16:08:59.498Z,13.03
2023-04-26T16:12:03.770Z,12.94
2023-04-26T16:15:08.471Z,12.80
2023-04-26T16:18:11.387Z,12.79
2023-04-26T16:21:14.293Z,12.91
2023-04-26T16:24:17.268Z,12.62
2023-04-26T16:27:23.140Z,12.61
2023-04-26T16:30:25.977Z,12.61
2023-04-26T16:33:29.155Z,12.38
2023-04-26T16:36:33.024Z,12.16
2023-04-26T16:39:36.267Z,12.07
2023-04-26T16:42:43.436Z,11.98
2023-04-26T16:45:46.278Z,11.90
2023-04-26T16:48:49.087Z,11.85
2023-04-26T16:51:55.286Z,11.85
2023-04-26T16:54:59.417Z,11.76
2023-04-26T16:58:02.240Z,11.60
2023-04-26T17:01:05.166Z,11.52
2023-04-26T17:04:10.233Z,11.53
2023-04-26T17:07:14.384Z,11.40
2023-04-26T17:10:17.387Z,11.23
2023-04-26T17:13:20.736Z,11.19
2023-04-26T17:16:23.835Z,10.96
2023-04-26T17:19:27.221Z,10.88
2023-04-26T17:22:30.200Z,10.81
2023-04-26T17:25:33.020Z,10.68
2023-04-26T17:28:36.100Z,10.67
2023-04-26T17:31:39.101Z,10.54
2023-04-26T17:34:42.174Z,10.37
2023-04-26T17:37:50.543Z,10.18
2023-04-26T17:40:54.181Z,9.98
2023-04-26T17:43:57.133Z,9.88
2023-04-26T17:47:00.198Z,9.90
2023-04-26T17:50:03.692Z,9.91
2023-04-26T17:53:07.374Z,9.80
2023-04-26T17:56:10.716Z,9.79
2023-04-26T17:59:13.847Z,9.69
2023-04-26T18:02:17.186Z,9.56
2023-04-26T18:05:21.455Z,9.54
2023-04-26T18:08:24.531Z,9.58
2023-04-26T18:11:27.244Z,9.52
2023-04-26T18:14:30.736Z,9.48
2023-04-26T18:17:33.678Z,9.40
2023-04-26T18:20:39.673Z,9.33
2023-04-26T18:23:42.526Z,9.27
2023-04-26T18:26:45.470Z,9.02
2023-04-26T18:29:49.348Z,8.93
2023-04-26T18:32:53.329Z,8.94
2023-04-26T18:35:56.421Z,8.75
2023-04-26T18:39:00.862Z,8.47
2023-04-26T18:42:04.299Z,8.33
2023-04-26T18:45:08.004Z,8.22
2023-04-26T18:48:12.126Z,8.25
2023-04-26T18:51:15.269Z,8.23
2023-04-26T18:54:18.381Z,8.31
2023-04-26T18:57:22.806Z,8.34
2023-04-26T19:00:25.895Z,8.33
2023-04-26T19:03:29.055Z,8.20
2023-04-26T19:06:33.031Z,8.08
2023-04-26T19:09:50.470Z,8.09
2023-04-26T19:12:57.202Z,7.96
2023-04-26T19:16:00.439Z,7.78
2023-04-26T19:19:03.608Z,7.64
2023-04-26T19:22:06.442Z,7.52
2023-04-26T19:25:09.974Z,7.56
2023-04-26T19:28:13.149Z,7.55
2023-04-26T19:31:16.312Z,7.34
2023-04-26T19:34:19.326Z,7.38
2023-04-26T19:37:22.422Z,7.34
2023-04-26T19:40:25.556Z,7.11
2023-04-26T19:43:28.598Z,7.15
2023-04-26T19:46:31.668Z,7.15
2023-04-26T19:49:35.208Z,6.98
2023-04-26T19:52:38.262Z,6.85
2023-04-26T19:55:42.539Z,6.83
2023-04-26T19:58:45.942Z,6.85
2023-04-26T20:01:51.655Z,6.92
2023-04-26T20:04:57.014Z,6.97
2023-04-26T20:08:00.174Z,6.94
2023-04-26T20:11:04.831Z,6.94
2023-04-26T20:14:07.942Z,6.86
2023-04-26T20:17:11.038Z,6.73
2023-04-26T20:20:14.064Z,6.88
2023-04-26T20:23:17.242Z,6.82
2023-04-26T20:26:20.133Z,6.74
2023-04-26T20:29:23.006Z,6.82
2023-04-26T20:32:26.076Z,6.71
2023-04-26T20:35:29.235Z,6.72
2023-04-26T20:38:32.195Z,6.62
2023-04-26T20:41:35.514Z,6.63
2023-04-26T20:44:38.615Z,6.54
2023-04-26T20:47:41.476Z,6.52
2023-04-26T20:50:45.984Z,6.49
2023-04-26T20:53:49.232Z,6.51
2023-04-26T20:56:51.989Z,6.46
2023-04-26T20:59:54.763Z,6.35
2023-04-26T21:02:57.912Z,6.29
2023-04-26T21:06:00.727Z,6.38
2023-04-26T21:09:05.367Z,6.31
2023-04-26T21:12:08.636Z,6.38
2023-04-26T21:15:11.737Z,6.38
2023-04-26T21:18:14.512Z,6.38
2023-04-26T21:21:17.262Z,6.26
2023-04-26T21:24:20.349Z,6.25
2023-04-26T21:27:23.079Z,6.15
2023-04-26T21:30:25.832Z,6.18
2023-04-26T21:33:28.698Z,6.10
2023-04-26T21:36:32.538Z,6.17
2023-04-26T21:39:35.271Z,6.18
2023-04-26T21:42:37.986Z,6.06
2023-04-26T21:45:41.473Z,6.07
2023-04-26T21:48:44.899Z,5.73
2023-04-26T21:51:47.665Z,5.58
2023-04-26T21:54:52.728Z,5.46
2023-04-26T21:57:55.902Z,5.40
2023-04-26T22:01:10.103Z,5.57
2023-04-26T22:04:13.310Z,5.70
2023-04-26T22:07:16.152Z,5.81
2023-04-26T22:10:19.056Z,5.85
2023-04-26T22:13:32.469Z,5.73
2023-04-26T22:16:35.332Z,5.68
2023-04-26T22:19:38.380Z,5.53
2023-04-26T22:22:41.686Z,5.33
2023-04-26T22:25:44.455Z,5.08
2023-04-26T22:28:47.313Z,5.16
2023-04-26T22:31:50.293Z,5.36
2023-04-26T22:34:53.417Z,5.60
2023-04-26T22:37:56.455Z,5.71
2023-04-26T22:40:59.256Z,5.69
2023-04-26T22:44:02.069Z,5.56
2023-04-26T22:47:04.918Z,5.36
2023-04-26T22:50:08.546Z,5.39
2023-04-26T22:53:11.289Z,5.36
2023-04-26T22:56:14.088Z,5.30
2023-04-26T22:59:16.900Z,5.25
2023-04-26T23:02:20.259Z,5.39
2023-04-26T23:05:23.150Z,5.37
2023-04-26T23:08:25.900Z,5.44
2023-04-26T23:11:28.684Z,5.48
2023-04-26T23:14:31.716Z,5.01
2023-04-26T23:17:34.913Z,5.10
2023-04-26T23:20:37.712Z,5.06
2023-04-26T23:23:42.936Z,5.00
2023-04-26T23:26:45.760Z,4.78
2023-04-26T23:29:50.753Z,4.75
2023-04-26T23:32:53.561Z,4.76
2023-04-26T23:35:56.890Z,4.81
2023-04-26T23:39:00.104Z,4.82
2023-04-26T23:42:03.943Z,4.85
2023-04-26T23:45:07.963Z,4.95
2023-04-26T23:48:10.784Z,5.02
2023-04-26T23:51:13.663Z,5.26
2023-04-26T23:54:16.686Z,5.21
2023-04-26T23:57:19.453Z,5.31
